Terminal Aerodrome Forecast
Issued by NWS Billings, MT

Home | Current Version | Previous Version | Graphics & Text | Print | Product List | Glossary On
Versions: 1 2 3 4 5 6 7 8 9 10 11 12 13 14 15 16 17 18 19 20 21 22 23 24 25 26 27 28 29 30
564
FTUS45 KBYZ 191814 AAA
TAFMLS
TAF AMD
KMLS 191814Z 1918/2018 VRB06KT 6SM -SN BKN035 BKN050
      TEMPO 1918/1922 3SM -SN BR BKN020
     FM200500 VRB05KT P6SM -SN FEW010 SCT050
     FM201600 27011KT P6SM FEW010 SCT050=

USA.gov is the U.S. government's official web portal to all federal, state and local government web resources and services.